createdAt,value
2023-01-22T00:01:09.364Z,100581.59
2023-01-22T00:03:39.434Z,100579.37
2023-01-22T00:06:06.616Z,100577.22
2023-01-22T00:08:33.657Z,100581.81
2023-01-22T00:11:00.508Z,100580.16
2023-01-22T00:13:28.361Z,100586.56
2023-01-22T00:15:57.056Z,100588.50
2023-01-22T00:18:23.860Z,100589.53
2023-01-22T00:20:51.317Z,100589.09
2023-01-22T00:23:18.376Z,100590.75
2023-01-22T00:25:45.416Z,100591.06
2023-01-22T00:28:12.606Z,100590.69
2023-01-22T00:30:39.794Z,100588.34
2023-01-22T00:33:07.111Z,100582.94
2023-01-22T00:35:36.680Z,100594.06
2023-01-22T00:38:04.065Z,100596.91
2023-01-22T00:40:30.994Z,100600.06
2023-01-22T00:42:57.958Z,100603.66
2023-01-22T00:45:24.745Z,100610.34
2023-01-22T00:47:52.229Z,100609.84
2023-01-22T00:50:19.291Z,100602.69
2023-01-22T00:52:46.389Z,100602.09
2023-01-22T00:55:13.077Z,100602.81
2023-01-22T00:57:39.961Z,100609.75
2023-01-22T01:00:07.400Z,100614.22
2023-01-22T01:02:34.317Z,100623.34
2023-01-22T01:05:02.206Z,100626.87
2023-01-22T01:07:29.003Z,100629.34
2023-01-22T01:09:55.837Z,100632.44
2023-01-22T01:12:22.573Z,100636.22
2023-01-22T01:14:49.523Z,100625.44
2023-01-22T01:17:16.337Z,100634.66
2023-01-22T01:19:45.282Z,100621.38
2023-01-22T01:22:11.999Z,100630.63
2023-01-22T01:24:38.717Z,100620.41
2023-01-22T01:27:05.598Z,100623.19
2023-01-22T01:29:32.491Z,100626.22
2023-01-22T01:32:00.239Z,100633.03
2023-01-22T01:34:27.244Z,100624.19
2023-01-22T01:36:54.080Z,100630.22
2023-01-22T01:39:20.991Z,100624.22
2023-01-22T01:41:48.185Z,100627.47
2023-01-22T01:44:20.655Z,100620.91
2023-01-22T01:47:01.378Z,100630.03
2023-01-22T01:49:49.138Z,100624.59
2023-01-22T01:52:33.293Z,100619.44
2023-01-22T01:55:00.183Z,100626.75
2023-01-22T01:57:28.326Z,100627.31
2023-01-22T01:59:56.707Z,100635.94
2023-01-22T02:02:23.956Z,100632.38
2023-01-22T02:04:51.232Z,100640.25
2023-01-22T02:07:18.376Z,100638.53
2023-01-22T02:09:45.288Z,100640.97
2023-01-22T02:12:12.963Z,100635.84
2023-01-22T02:14:41.738Z,100630.84
2023-01-22T02:17:14.453Z,100642.69
2023-01-22T02:19:41.787Z,100636.78
2023-01-22T02:22:11.798Z,100635.19
2023-01-22T02:24:39.655Z,100629.47
2023-01-22T02:27:10.843Z,100626.66
2023-01-22T02:29:37.826Z,100622.75
2023-01-22T02:32:04.619Z,100625.44
2023-01-22T02:34:31.307Z,100628.25
2023-01-22T02:36:58.179Z,100623.34
2023-01-22T02:39:24.855Z,100633.63
2023-01-22T02:41:51.599Z,100628.13
2023-01-22T02:44:18.591Z,100633.03
2023-01-22T02:46:45.253Z,100625.88
2023-01-22T02:49:11.972Z,100623.22
2023-01-22T02:51:38.714Z,100616.19
2023-01-22T02:54:05.601Z,100620.81
2023-01-22T02:56:33.596Z,100618.81
2023-01-22T02:59:01.247Z,100625.56
2023-01-22T03:01:28.585Z,100631.81
2023-01-22T03:03:56.781Z,100613.87
2023-01-22T03:06:25.079Z,100629.59
2023-01-22T03:08:58.718Z,100625.88
2023-01-22T03:11:26.864Z,100621.69
2023-01-22T03:14:12.214Z,100627.34
2023-01-22T03:16:57.401Z,100618.62
2023-01-22T03:19:43.044Z,100616.84
2023-01-22T03:22:09.868Z,100613.66
2023-01-22T03:24:36.626Z,100611.19
2023-01-22T03:27:04.211Z,100611.50
2023-01-22T03:29:30.893Z,100623.81
2023-01-22T03:31:57.593Z,100619.25
2023-01-22T03:34:26.851Z,100613.50
2023-01-22T03:36:53.560Z,100607.47
2023-01-22T03:39:20.336Z,100623.53
2023-01-22T03:41:47.041Z,100621.66
2023-01-22T03:44:14.511Z,100619.78
2023-01-22T03:46:41.451Z,100620.84
2023-01-22T03:49:08.896Z,100616.22
2023-01-22T03:51:36.454Z,100617.69
2023-01-22T03:54:03.162Z,100613.44
2023-01-22T03:56:30.044Z,100613.94
2023-01-22T03:58:57.390Z,100618.72
2023-01-22T04:01:25.647Z,100610.03
2023-01-22T04:03:53.012Z,100610.69
2023-01-22T04:06:20.437Z,100608.72
2023-01-22T04:08:48.096Z,100610.78
2023-01-22T04:11:15.156Z,100611.44
2023-01-22T04:13:43.036Z,100605.00
2023-01-22T04:16:10.543Z,100604.06
2023-01-22T04:18:37.262Z,100613.16
2023-01-22T04:21:04.495Z,100600.75
2023-01-22T04:23:31.320Z,100604.41
2023-01-22T04:25:58.193Z,100610.72
2023-01-22T04:28:24.960Z,100607.47
2023-01-22T04:30:53.316Z,100607.03
2023-01-22T04:33:20.434Z,100613.31
2023-01-22T04:35:56.220Z,100623.94
2023-01-22T04:38:23.211Z,100626.06
2023-01-22T04:40:50.220Z,100624.47
2023-01-22T04:43:18.159Z,100616.59
2023-01-22T04:45:44.915Z,100613.94
2023-01-22T04:48:12.842Z,100628.94
2023-01-22T04:50:40.085Z,100632.50
2023-01-22T04:53:06.839Z,100622.22
2023-01-22T04:55:33.916Z,100626.75
2023-01-22T04:58:01.099Z,100633.78
2023-01-22T05:00:28.777Z,100629.12
2023-01-22T05:02:59.280Z,100623.28
2023-01-22T05:05:26.757Z,100631.06
2023-01-22T05:07:53.514Z,100633.97
2023-01-22T05:10:20.803Z,100628.53
2023-01-22T05:12:47.992Z,100631.13
2023-01-22T05:15:23.618Z,100633.13
2023-01-22T05:17:51.028Z,100637.53
2023-01-22T05:20:17.962Z,100633.78
2023-01-22T05:22:44.999Z,100636.78
2023-01-22T05:25:11.815Z,100639.69
2023-01-22T05:27:38.682Z,100653.25
2023-01-22T05:30:06.008Z,100638.31
2023-01-22T05:32:32.771Z,100645.72
2023-01-22T05:34:59.538Z,100648.62
2023-01-22T05:37:26.443Z,100647.56
2023-01-22T05:39:53.161Z,100649.63
2023-01-22T05:42:21.244Z,100657.72
2023-01-22T05:44:48.136Z,100648.75
2023-01-22T05:47:15.022Z,100649.66
2023-01-22T05:49:41.810Z,100659.19
2023-01-22T05:52:11.063Z,100661.03
2023-01-22T05:54:40.599Z,100663.22
2023-01-22T05:57:07.549Z,100668.22
2023-01-22T05:59:34.665Z,100672.66
2023-01-22T06:02:01.690Z,100667.75
2023-01-22T06:04:28.849Z,100674.59
2023-01-22T06:06:55.623Z,100669.62
2023-01-22T06:09:22.445Z,100681.47
2023-01-22T06:11:49.497Z,100682.56
2023-01-22T06:14:16.329Z,100688.97
2023-01-22T06:16:43.060Z,100702.31
2023-01-22T06:19:09.961Z,100715.91
2023-01-22T06:21:36.657Z,100710.88
2023-01-22T06:24:03.663Z,100713.34
2023-01-22T06:26:30.376Z,100705.13
2023-01-22T06:28:57.165Z,100718.06
2023-01-22T06:31:24.073Z,100716.66
2023-01-22T06:33:50.870Z,100714.69
2023-01-22T06:36:17.615Z,100712.66
2023-01-22T06:38:44.272Z,100712.47
2023-01-22T06:41:11.230Z,100717.44
2023-01-22T06:43:37.934Z,100717.97
2023-01-22T06:46:05.235Z,100712.47
2023-01-22T06:48:32.012Z,100720.03
2023-01-22T06:50:59.230Z,100726.81
2023-01-22T06:53:26.339Z,100742.13
2023-01-22T06:55:53.057Z,100742.34
2023-01-22T06:58:19.783Z,100753.22
2023-01-22T07:00:46.517Z,100755.53
2023-01-22T07:03:13.595Z,100760.72
2023-01-22T07:05:40.288Z,100754.66
2023-01-22T07:08:06.933Z,100757.84
2023-01-22T07:10:33.636Z,100761.97
2023-01-22T07:13:00.420Z,100756.25
2023-01-22T07:15:27.245Z,100754.44
2023-01-22T07:17:54.521Z,100762.44
2023-01-22T07:20:22.251Z,100773.50
2023-01-22T07:22:49.053Z,100766.31
2023-01-22T07:25:15.675Z,100769.50
2023-01-22T07:27:42.467Z,100775.06
2023-01-22T07:30:09.599Z,100778.47
2023-01-22T07:32:36.543Z,100777.56
2023-01-22T07:35:03.309Z,100779.97
2023-01-22T07:37:29.944Z,100786.69
2023-01-22T07:39:56.569Z,100785.72
2023-01-22T07:42:23.340Z,100788.97
2023-01-22T07:44:49.972Z,100790.38
2023-01-22T07:47:16.682Z,100789.81
2023-01-22T07:49:43.322Z,100803.50
2023-01-22T07:52:10.079Z,100793.78
2023-01-22T07:54:36.827Z,100808.56
2023-01-22T07:57:03.900Z,100798.59
2023-01-22T07:59:30.928Z,100808.59
2023-01-22T08:01:57.796Z,100813.50
2023-01-22T08:04:25.047Z,100812.56
2023-01-22T08:06:52.217Z,100820.34
2023-01-22T08:09:24.968Z,100818.69
2023-01-22T08:11:52.648Z,100822.69
2023-01-22T08:14:19.750Z,100817.22
2023-01-22T08:16:46.625Z,100817.44
2023-01-22T08:19:13.591Z,100819.53
2023-01-22T08:21:40.526Z,100833.47
2023-01-22T08:24:08.380Z,100834.31
2023-01-22T08:26:35.305Z,100842.91
2023-01-22T08:29:05.320Z,100835.97
2023-01-22T08:31:33.450Z,100832.09
2023-01-22T08:34:00.381Z,100836.91
2023-01-22T08:36:27.126Z,100839.66
2023-01-22T08:38:53.982Z,100834.59
2023-01-22T08:41:21.281Z,100838.75
2023-01-22T08:43:48.054Z,100837.09
2023-01-22T08:46:14.811Z,100846.00
2023-01-22T08:48:43.573Z,100845.91
2023-01-22T08:51:11.008Z,100851.31
2023-01-22T08:53:37.777Z,100859.88
2023-01-22T08:56:04.651Z,100852.72
2023-01-22T08:58:31.338Z,100858.22
2023-01-22T09:00:58.116Z,100867.69
2023-01-22T09:03:24.942Z,100872.38
2023-01-22T09:05:51.818Z,100877.13
2023-01-22T09:08:18.575Z,100885.91
2023-01-22T09:10:45.400Z,100881.06
2023-01-22T09:13:12.139Z,100896.47
2023-01-22T09:15:40.201Z,100892.06
2023-01-22T09:18:07.066Z,100896.06
2023-01-22T09:20:34.006Z,100901.06
2023-01-22T09:23:00.714Z,100903.81
2023-01-22T09:25:27.433Z,100911.69
2023-01-22T09:28:01.265Z,100911.59
2023-01-22T09:30:30.495Z,100917.38
2023-01-22T09:32:57.326Z,100915.06
2023-01-22T09:35:24.270Z,100919.25
2023-01-22T09:37:51.001Z,100914.31
2023-01-22T09:40:37.974Z,100921.41
2023-01-22T09:43:06.624Z,100934.25
2023-01-22T09:45:38.180Z,100923.91
2023-01-22T09:48:08.304Z,100936.84
2023-01-22T09:50:35.556Z,100931.91
2023-01-22T09:53:04.285Z,100933.66
2023-01-22T09:55:33.335Z,100935.25
2023-01-22T09:58:01.789Z,100940.56
2023-01-22T10:00:39.809Z,100938.72
2023-01-22T10:03:25.131Z,100937.50
2023-01-22T10:05:55.694Z,100944.75
2023-01-22T10:08:26.608Z,100936.03
2023-01-22T10:10:53.832Z,100927.81
2023-01-22T10:13:24.933Z,100927.03
2023-01-22T10:15:52.925Z,100937.41
2023-01-22T10:18:35.053Z,100932.78
2023-01-22T10:21:04.035Z,100936.84
2023-01-22T10:23:32.139Z,100951.56
2023-01-22T10:26:04.996Z,100955.13
2023-01-22T10:28:31.976Z,100955.00
2023-01-22T10:30:59.271Z,100960.34
2023-01-22T10:33:27.658Z,100956.28
2023-01-22T10:35:56.966Z,100958.09
2023-01-22T10:38:23.809Z,100961.56
2023-01-22T10:40:55.378Z,100962.03
2023-01-22T10:43:22.720Z,100953.38
2023-01-22T10:46:03.170Z,100953.81
2023-01-22T10:48:29.870Z,100955.69
2023-01-22T10:51:11.180Z,100952.16
2023-01-22T10:53:39.721Z,100957.78
2023-01-22T10:56:08.232Z,100966.41
2023-01-22T10:58:36.782Z,100963.75
2023-01-22T11:01:20.241Z,100969.44
2023-01-22T11:03:46.963Z,100958.87
2023-01-22T11:06:15.123Z,100971.28
2023-01-22T11:08:58.408Z,100972.72
2023-01-22T11:11:30.551Z,100974.44
2023-01-22T11:14:01.393Z,100975.94
2023-01-22T11:16:28.780Z,100960.78
2023-01-22T11:18:55.699Z,100962.87
2023-01-22T11:21:34.620Z,100972.37
2023-01-22T11:24:10.057Z,100958.87
2023-01-22T11:26:52.208Z,100969.91
2023-01-22T11:29:18.842Z,100965.44
2023-01-22T11:31:52.189Z,100967.31
2023-01-22T11:34:37.449Z,100970.69
2023-01-22T11:37:10.260Z,100963.75
2023-01-22T11:39:39.987Z,100973.78
2023-01-22T11:42:18.822Z,100969.50
2023-01-22T11:44:45.966Z,100974.53
2023-01-22T11:47:12.589Z,100976.37
2023-01-22T11:49:58.125Z,100984.91
2023-01-22T11:52:33.799Z,100993.63
2023-01-22T11:55:09.200Z,100994.94
2023-01-22T11:57:38.859Z,100990.88
2023-01-22T12:00:05.522Z,100982.34
2023-01-22T12:02:35.210Z,100973.63
2023-01-22T12:05:25.233Z,100986.84
2023-01-22T12:07:52.220Z,100979.84
2023-01-22T12:10:19.286Z,100970.78
2023-01-22T12:12:58.946Z,100966.25
2023-01-22T12:15:41.260Z,100967.19
2023-01-22T12:18:08.024Z,100970.41
2023-01-22T12:20:47.361Z,100968.00
2023-01-22T12:23:26.569Z,100982.81
2023-01-22T12:25:57.296Z,100981.66
2023-01-22T12:28:35.033Z,100977.56
2023-01-22T12:31:07.848Z,100975.19
2023-01-22T12:33:39.305Z,100972.91
2023-01-22T12:36:08.158Z,100961.25
2023-01-22T12:38:43.321Z,100968.22
2023-01-22T12:41:28.360Z,100973.88
2023-01-22T12:43:57.466Z,100978.19
2023-01-22T12:46:48.916Z,100988.19
2023-01-22T12:49:17.003Z,101004.59
2023-01-22T12:51:45.287Z,100992.38
2023-01-22T12:54:33.809Z,100995.38
2023-01-22T12:57:11.357Z,100997.81
2023-01-22T12:59:38.419Z,101005.38
2023-01-22T13:02:19.561Z,101010.53
2023-01-22T13:05:18.755Z,101016.50
2023-01-22T13:07:46.075Z,101028.22
2023-01-22T13:10:29.665Z,101029.69
2023-01-22T13:13:05.290Z,101041.06
2023-01-22T13:15:37.435Z,101050.94
2023-01-22T13:18:07.945Z,101047.94
2023-01-22T13:20:36.550Z,101039.97
2023-01-22T13:23:05.290Z,101037.16
2023-01-22T13:25:33.072Z,101036.22
2023-01-22T13:28:00.743Z,101048.47
2023-01-22T13:30:28.801Z,101058.84
2023-01-22T13:33:05.571Z,101047.63
2023-01-22T13:35:34.835Z,101054.53
2023-01-22T13:38:01.591Z,101058.44
2023-01-22T13:40:31.521Z,101062.69
2023-01-22T13:43:01.684Z,101067.84
2023-01-22T13:45:30.042Z,101061.25
2023-01-22T13:47:57.655Z,101074.84
2023-01-22T13:50:26.429Z,101087.91
2023-01-22T13:52:53.183Z,101092.50
2023-01-22T13:55:22.234Z,101089.91
2023-01-22T13:57:52.881Z,101097.34
2023-01-22T14:00:22.819Z,101106.97
2023-01-22T14:02:49.948Z,101116.56
2023-01-22T14:05:22.846Z,101117.72
2023-01-22T14:07:52.046Z,101115.84
2023-01-22T14:10:25.225Z,101126.09
2023-01-22T14:13:18.452Z,101127.72
2023-01-22T14:15:53.975Z,101139.09
2023-01-22T14:18:21.549Z,101125.31
2023-01-22T14:20:48.664Z,101124.41
2023-01-22T14:23:15.858Z,101125.63
2023-01-22T14:25:48.824Z,101133.62
2023-01-22T14:28:16.103Z,101128.63
2023-01-22T14:30:43.007Z,101124.69
2023-01-22T14:33:14.974Z,101124.84
2023-01-22T14:35:41.705Z,101127.97
2023-01-22T14:38:08.585Z,101121.44
2023-01-22T14:40:36.454Z,101127.56
2023-01-22T14:43:03.637Z,101130.09
2023-01-22T14:45:30.430Z,101129.81
2023-01-22T14:47:57.251Z,101130.28
2023-01-22T14:50:33.133Z,101138.81
2023-01-22T14:53:01.239Z,101149.66
2023-01-22T14:55:28.657Z,101139.56
2023-01-22T14:57:57.527Z,101141.25
2023-01-22T15:00:24.501Z,101145.47
2023-01-22T15:02:54.732Z,101127.88
2023-01-22T15:05:21.638Z,101135.69
2023-01-22T15:07:48.368Z,101148.69
2023-01-22T15:10:15.121Z,101159.75
2023-01-22T15:12:45.206Z,101166.53
2023-01-22T15:15:12.021Z,101167.84
2023-01-22T15:17:39.405Z,101180.19
2023-01-22T15:20:06.408Z,101194.72
2023-01-22T15:22:40.221Z,101196.56
2023-01-22T15:25:07.243Z,101200.06
2023-01-22T15:27:34.107Z,101196.59
2023-01-22T15:30:00.876Z,101189.97
2023-01-22T15:32:27.600Z,101201.03
2023-01-22T15:34:54.322Z,101209.72
2023-01-22T15:37:21.025Z,101192.94
2023-01-22T15:39:47.824Z,101185.41
2023-01-22T15:42:15.095Z,101180.47
2023-01-22T15:44:46.412Z,101195.94
2023-01-22T15:47:14.873Z,101213.06
2023-01-22T15:49:41.605Z,101196.31
2023-01-22T15:52:08.243Z,101206.69
2023-01-22T15:54:35.046Z,101217.97
2023-01-22T15:57:06.242Z,101215.53
2023-01-22T15:59:33.479Z,101214.88
2023-01-22T16:02:00.268Z,101216.47
2023-01-22T16:04:29.063Z,101218.44
2023-01-22T16:06:55.829Z,101220.06
2023-01-22T16:09:24.612Z,101219.47
2023-01-22T16:11:52.656Z,101217.97
2023-01-22T16:14:21.926Z,101221.16
2023-01-22T16:16:48.802Z,101220.78
2023-01-22T16:19:16.226Z,101222.00
2023-01-22T16:21:45.239Z,101214.00
2023-01-22T16:24:11.882Z,101212.25
2023-01-22T16:26:38.612Z,101210.44
2023-01-22T16:29:06.048Z,101213.88
2023-01-22T16:31:33.947Z,101212.34
2023-01-22T16:34:06.240Z,101208.03
2023-01-22T16:36:33.660Z,101215.12
2023-01-22T16:39:00.536Z,101215.12
2023-01-22T16:41:28.797Z,101222.34
2023-01-22T16:43:55.574Z,101228.06
2023-01-22T16:46:23.671Z,101227.13
2023-01-22T16:48:55.580Z,101232.03
2023-01-22T16:51:24.965Z,101223.34
2023-01-22T16:53:51.850Z,101237.53
2023-01-22T16:56:18.531Z,101236.78
2023-01-22T16:58:45.319Z,101245.53
2023-01-22T17:01:13.614Z,101251.72
2023-01-22T17:03:40.500Z,101245.75
2023-01-22T17:06:07.825Z,101243.97
2023-01-22T17:08:34.543Z,101240.87
2023-01-22T17:11:01.561Z,101244.81
2023-01-22T17:13:29.878Z,101249.25
2023-01-22T17:15:56.694Z,101248.44
2023-01-22T17:18:23.436Z,101261.31
2023-01-22T17:21:01.601Z,101259.91
2023-01-22T17:23:28.872Z,101261.47
2023-01-22T17:25:57.647Z,101268.63
2023-01-22T17:28:24.437Z,101256.69
2023-01-22T17:30:51.391Z,101274.13
2023-01-22T17:33:21.016Z,101280.63
2023-01-22T17:35:47.711Z,101283.97
2023-01-22T17:38:14.745Z,101289.50
2023-01-22T17:40:42.357Z,101290.59
2023-01-22T17:43:09.051Z,101298.44
2023-01-22T17:45:38.858Z,101299.59
2023-01-22T17:48:05.984Z,101304.25
2023-01-22T17:50:32.724Z,101304.72
2023-01-22T17:52:59.429Z,101297.59
2023-01-22T17:55:28.374Z,101300.25
2023-01-22T17:57:55.293Z,101300.72
2023-01-22T18:00:23.117Z,101302.94
2023-01-22T18:02:50.461Z,101301.87
2023-01-22T18:05:17.558Z,101301.09
2023-01-22T18:07:44.496Z,101298.41
2023-01-22T18:10:13.622Z,101301.06
2023-01-22T18:12:40.544Z,101314.22
2023-01-22T18:15:07.383Z,101315.59
2023-01-22T18:17:35.315Z,101315.78
2023-01-22T18:20:03.550Z,101299.59
2023-01-22T18:22:32.887Z,101297.06
2023-01-22T18:24:59.653Z,101291.50
2023-01-22T18:27:26.432Z,101304.34
2023-01-22T18:29:53.185Z,101300.16
2023-01-22T18:32:19.825Z,101295.91
2023-01-22T18:34:46.498Z,101302.88
2023-01-22T18:37:13.368Z,101301.06
2023-01-22T18:39:40.972Z,101312.59
2023-01-22T18:42:07.655Z,101319.97
2023-01-22T18:44:34.359Z,101312.13
2023-01-22T18:47:01.896Z,101320.59
2023-01-22T18:49:29.135Z,101330.12
2023-01-22T18:51:59.402Z,101341.97
2023-01-22T18:54:26.117Z,101323.72
2023-01-22T18:56:52.818Z,101333.25
2023-01-22T18:59:19.471Z,101345.53
2023-01-22T19:01:51.535Z,101334.69
2023-01-22T19:04:21.956Z,101348.66
2023-01-22T19:06:52.973Z,101349.69
2023-01-22T19:09:20.424Z,101343.34
2023-01-22T19:11:48.021Z,101341.97
2023-01-22T19:14:16.795Z,101347.59
2023-01-22T19:16:45.127Z,101357.69
2023-01-22T19:19:13.683Z,101365.00
2023-01-22T19:21:47.182Z,101364.53
2023-01-22T19:24:15.471Z,101368.56
2023-01-22T19:26:42.817Z,101378.81
2023-01-22T19:29:12.543Z,101382.81
2023-01-22T19:31:43.639Z,101390.44
2023-01-22T19:34:12.167Z,101406.84
2023-01-22T19:36:38.997Z,101403.03
2023-01-22T19:39:07.221Z,101401.75
2023-01-22T19:41:33.941Z,101391.50
2023-01-22T19:44:01.441Z,101396.72
2023-01-22T19:46:28.990Z,101386.37
2023-01-22T19:48:56.210Z,101385.59
2023-01-22T19:51:24.838Z,101376.75
2023-01-22T19:53:51.609Z,101379.78
2023-01-22T19:56:23.458Z,101382.75
2023-01-22T19:58:51.036Z,101384.38
2023-01-22T20:01:18.193Z,101391.78
2023-01-22T20:03:44.965Z,101393.53
2023-01-22T20:06:12.875Z,101400.53
2023-01-22T20:08:39.569Z,101382.81
2023-01-22T20:11:07.916Z,101376.88
2023-01-22T20:13:34.953Z,101384.03
2023-01-22T20:16:02.128Z,101379.00
2023-01-22T20:18:29.080Z,101376.34
2023-01-22T20:20:56.822Z,101376.47
2023-01-22T20:23:23.938Z,101379.47
2023-01-22T20:25:50.633Z,101380.53
2023-01-22T20:28:18.091Z,101378.97
2023-01-22T20:30:45.267Z,101382.63
2023-01-22T20:33:12.273Z,101394.66
2023-01-22T20:35:42.754Z,101391.69
2023-01-22T20:38:09.788Z,101386.84
2023-01-22T20:40:39.210Z,101387.62
2023-01-22T20:43:06.173Z,101388.91
2023-01-22T20:45:33.008Z,101376.88
2023-01-22T20:47:59.797Z,101383.81
2023-01-22T20:50:26.487Z,101383.03
2023-01-22T20:52:53.500Z,101380.69
2023-01-22T20:55:21.222Z,101370.81
2023-01-22T20:57:48.014Z,101368.66
2023-01-22T21:00:14.956Z,101377.81
2023-01-22T21:02:41.664Z,101379.09
2023-01-22T21:05:08.595Z,101385.63
2023-01-22T21:07:35.374Z,101393.84
2023-01-22T21:10:02.292Z,101400.81
2023-01-22T21:12:28.944Z,101406.78
2023-01-22T21:14:55.746Z,101417.97
2023-01-22T21:17:22.489Z,101422.41
2023-01-22T21:19:49.568Z,101424.88
2023-01-22T21:22:16.228Z,101426.31
2023-01-22T21:24:43.434Z,101429.03
2023-01-22T21:27:10.225Z,101438.22
2023-01-22T21:29:37.039Z,101425.19
2023-01-22T21:32:03.947Z,101420.13
2023-01-22T21:34:32.558Z,101414.72
2023-01-22T21:37:00.005Z,101411.81
2023-01-22T21:39:28.493Z,101408.84
2023-01-22T21:42:15.487Z,101407.97
2023-01-22T21:45:01.076Z,101404.59
2023-01-22T21:47:28.072Z,101415.75
2023-01-22T21:49:54.895Z,101403.34
2023-01-22T21:52:21.636Z,101401.72
2023-01-22T21:54:48.314Z,101414.53
2023-01-22T21:57:15.939Z,101426.69
2023-01-22T21:59:43.434Z,101421.84
2023-01-22T22:02:16.942Z,101421.06
2023-01-22T22:04:43.667Z,101416.09
2023-01-22T22:07:10.677Z,101422.69
2023-01-22T22:09:37.475Z,101435.16
2023-01-22T22:12:04.712Z,101418.91
2023-01-22T22:14:43.748Z,101425.09
2023-01-22T22:17:11.047Z,101422.94
2023-01-22T22:19:37.877Z,101417.34
2023-01-22T22:22:04.599Z,101410.78
2023-01-22T22:24:31.285Z,101403.44
2023-01-22T22:26:57.988Z,101409.97
2023-01-22T22:29:24.657Z,101406.91
2023-01-22T22:31:51.323Z,101398.03
2023-01-22T22:34:18.034Z,101396.19
2023-01-22T22:36:44.660Z,101394.66
2023-01-22T22:39:11.272Z,101388.19
2023-01-22T22:41:38.997Z,101383.34
2023-01-22T22:44:06.122Z,101386.28
2023-01-22T22:46:34.351Z,101386.00
2023-01-22T22:49:01.976Z,101388.16
2023-01-22T22:51:30.478Z,101386.16
2023-01-22T22:53:59.115Z,101388.50
2023-01-22T22:56:26.898Z,101382.91
2023-01-22T22:58:53.960Z,101378.53
2023-01-22T23:01:22.222Z,101393.91
2023-01-22T23:03:49.037Z,101397.47
2023-01-22T23:06:20.441Z,101392.22
2023-01-22T23:08:53.992Z,101380.31
2023-01-22T23:11:24.382Z,101382.34
2023-01-22T23:13:51.071Z,101376.69
2023-01-22T23:16:19.491Z,101367.19
2023-01-22T23:18:47.087Z,101375.72
2023-01-22T23:21:15.332Z,101362.03
2023-01-22T23:23:42.332Z,101345.66
2023-01-22T23:26:10.648Z,101340.38
2023-01-22T23:28:37.543Z,101341.97
2023-01-22T23:31:05.282Z,101337.88
2023-01-22T23:33:32.236Z,101344.91
2023-01-22T23:36:02.500Z,101340.00
2023-01-22T23:38:29.194Z,101342.37
2023-01-22T23:40:56.837Z,101345.94
2023-01-22T23:43:24.014Z,101355.13
2023-01-22T23:45:50.877Z,101362.72
2023-01-22T23:48:17.655Z,101355.91
2023-01-22T23:50:44.864Z,101359.22
2023-01-22T23:53:11.494Z,101372.63
2023-01-22T23:55:38.336Z,101361.66
2023-01-22T23:58:05.027Z,101366.00
